sensor_id;sensor_type;location;lat;lon;timestamp;pressure;altitude;pressure_sealevel;temperature;humidity
8049;BME280;20935;42.660;23.342;2023-06-14T00:02:32;94474.06;;;24.10;79.48
8049;BME280;20935;42.660;23.342;2023-06-14T00:05:17;94474.81;;;24.11;79.56
8049;BME280;20935;42.660;23.342;2023-06-14T00:08:03;94472.06;;;24.11;79.42
8049;BME280;20935;42.660;23.342;2023-06-14T00:10:52;94477.03;;;24.07;79.87
8049;BME280;20935;42.660;23.342;2023-06-14T00:13:37;94467.31;;;24.06;79.97
8049;BME280;20935;42.660;23.342;2023-06-14T00:16:22;94460.31;;;24.05;79.71
8049;BME280;20935;42.660;23.342;2023-06-14T00:19:08;94461.84;;;24.06;79.80
8049;BME280;20935;42.660;23.342;2023-06-14T00:21:54;94458.34;;;24.05;79.80
8049;BME280;20935;42.660;23.342;2023-06-14T00:24:40;94455.59;;;24.05;79.86
8049;BME280;20935;42.660;23.342;2023-06-14T00:27:27;94457.59;;;24.05;79.80
8049;BME280;20935;42.660;23.342;2023-06-14T00:30:12;94458.34;;;24.05;79.87
8049;BME280;20935;42.660;23.342;2023-06-14T00:32:57;94450.88;;;24.06;79.70
8049;BME280;20935;42.660;23.342;2023-06-14T00:35:43;94456.34;;;24.06;80.08
8049;BME280;20935;42.660;23.342;2023-06-14T00:38:28;94448.16;;;24.06;79.72
8049;BME280;20935;42.660;23.342;2023-06-14T00:41:13;94444.66;;;24.05;79.96
8049;BME280;20935;42.660;23.342;2023-06-14T00:43:59;94443.91;;;24.05;79.72
8049;BME280;20935;42.660;23.342;2023-06-14T00:46:45;94443.91;;;24.05;79.77
8049;BME280;20935;42.660;23.342;2023-06-14T00:49:30;94440.44;;;24.04;79.61
8049;BME280;20935;42.660;23.342;2023-06-14T00:52:16;94441.16;;;24.05;79.75
8049;BME280;20935;42.660;23.342;2023-06-14T00:55:01;94438.44;;;24.05;79.77
8049;BME280;20935;42.660;23.342;2023-06-14T00:57:46;94441.16;;;24.05;79.61
8049;BME280;20935;42.660;23.342;2023-06-14T01:00:34;94435.69;;;24.05;79.94
8049;BME280;20935;42.660;23.342;2023-06-14T01:03:19;94432.72;;;24.03;79.84
8049;BME280;20935;42.660;23.342;2023-06-14T01:06:09;94431.47;;;24.04;79.81
8049;BME280;20935;42.660;23.342;2023-06-14T01:09:01;94431.47;;;24.04;79.96
8049;BME280;20935;42.660;23.342;2023-06-14T01:11:50;94435.44;;;24.03;79.87
8049;BME280;20935;42.660;23.342;2023-06-14T01:14:37;94434.69;;;24.02;79.81
8049;BME280;20935;42.660;23.342;2023-06-14T01:17:24;94432.72;;;24.03;79.76
8049;BME280;20935;42.660;23.342;2023-06-14T01:20:11;94437.44;;;24.02;79.78
8049;BME280;20935;42.660;23.342;2023-06-14T01:23:00;94436.69;;;24.02;79.70
8049;BME280;20935;42.660;23.342;2023-06-14T01:25:46;94436.69;;;24.02;79.83
8049;BME280;20935;42.660;23.342;2023-06-14T01:28:31;94433.94;;;24.02;79.71
8049;BME280;20935;42.660;23.342;2023-06-14T01:31:17;94435.91;;;24.01;79.77
8049;BME280;20935;42.660;23.342;2023-06-14T01:34:03;94437.91;;;24.01;79.71
8049;BME280;20935;42.660;23.342;2023-06-14T01:36:48;94435.91;;;24.01;79.79
8049;BME280;20935;42.660;23.342;2023-06-14T01:39:36;94433.19;;;24.01;79.76
8049;BME280;20935;42.660;23.342;2023-06-14T01:42:21;94426.97;;;24.01;79.80
8049;BME280;20935;42.660;23.342;2023-06-14T01:45:07;94437.19;;;24.00;79.77
8049;BME280;20935;42.660;23.342;2023-06-14T01:47:53;94430.97;;;24.00;79.83
8049;BME280;20935;42.660;23.342;2023-06-14T01:50:39;94434.44;;;24.00;79.97
8049;BME280;20935;42.660;23.342;2023-06-14T01:53:24;94425.47;;;24.00;79.70
8049;BME280;20935;42.660;23.342;2023-06-14T01:56:11;94429.69;;;24.01;80.03
8049;BME280;20935;42.660;23.342;2023-06-14T01:58:56;94434.44;;;24.00;79.85
8049;BME280;20935;42.660;23.342;2023-06-14T02:01:42;94436.44;;;24.00;79.89
8049;BME280;20935;42.660;23.342;2023-06-14T02:04:27;94448.13;;;24.00;79.96
8049;BME280;20935;42.660;23.342;2023-06-14T02:07:12;94455.59;;;24.00;79.98
8049;BME280;20935;42.660;23.342;2023-06-14T02:09:57;94445.88;;;23.99;79.78
8049;BME280;20935;42.660;23.342;2023-06-14T02:12:44;94454.84;;;23.99;79.79
8049;BME280;20935;42.660;23.342;2023-06-14T02:15:29;94458.31;;;24.00;79.88
8049;BME280;20935;42.660;23.342;2023-06-14T02:18:17;94465.28;;;24.01;79.86
8049;BME280;20935;42.660;23.342;2023-06-14T02:21:02;94459.78;;;24.01;79.96
8049;BME280;20935;42.660;23.342;2023-06-14T02:23:47;94461.81;;;24.00;80.09
8049;BME280;20935;42.660;23.342;2023-06-14T02:26:32;94461.06;;;24.00;80.04
8049;BME280;20935;42.660;23.342;2023-06-14T02:29:19;94466.53;;;24.00;80.04
8049;BME280;20935;42.660;23.342;2023-06-14T02:32:05;94463.03;;;23.99;79.88
8049;BME280;20935;42.660;23.342;2023-06-14T02:34:51;94466.03;;;24.01;79.88
8049;BME280;20935;42.660;23.342;2023-06-14T02:37:37;94467.28;;;24.00;79.85
8049;BME280;20935;42.660;23.342;2023-06-14T02:40:22;94466.53;;;24.00;79.99
8049;BME280;20935;42.660;23.342;2023-06-14T02:43:07;94462.28;;;23.99;79.85
8049;BME280;20935;42.660;23.342;2023-06-14T02:45:53;94465.03;;;23.99;79.78
8049;BME280;20935;42.660;23.342;2023-06-14T02:48:38;94468.50;;;23.99;79.81
8049;BME280;20935;42.660;23.342;2023-06-14T02:51:23;94463.78;;;24.00;79.71
8049;BME280;20935;42.660;23.342;2023-06-14T02:54:08;94464.28;;;23.98;79.68
8049;BME280;20935;42.660;23.342;2023-06-14T02:56:54;94471.72;;;23.98;79.67
8049;BME280;20935;42.660;23.342;2023-06-14T02:59:39;94473.97;;;23.99;79.87
8049;BME280;20935;42.660;23.342;2023-06-14T03:02:26;94473.22;;;23.99;79.73
8049;BME280;20935;42.660;23.342;2023-06-14T03:05:11;94470.50;;;23.99;79.74
8049;BME280;20935;42.660;23.342;2023-06-14T03:07:56;94472.47;;;23.98;79.81
8049;BME280;20935;42.660;23.342;2023-06-14T03:10:41;94475.97;;;23.99;79.87
8049;BME280;20935;42.660;23.342;2023-06-14T03:13:26;94470.97;;;23.97;79.90
8049;BME280;20935;42.660;23.342;2023-06-14T03:16:16;94481.16;;;23.97;79.96
8049;BME280;20935;42.660;23.342;2023-06-14T03:19:05;94481.91;;;23.97;79.87
8049;BME280;20935;42.660;23.342;2023-06-14T03:21:50;94485.41;;;23.98;79.71
8049;BME280;20935;42.660;23.342;2023-06-14T03:24:35;94481.91;;;23.97;79.87
8049;BME280;20935;42.660;23.342;2023-06-14T03:27:21;94482.13;;;23.94;80.17
8049;BME280;20935;42.660;23.342;2023-06-14T03:30:06;94477.41;;;23.94;79.92
8049;BME280;20935;42.660;23.342;2023-06-14T03:32:51;94482.13;;;23.94;80.06
8049;BME280;20935;42.660;23.342;2023-06-14T03:35:40;94488.38;;;23.94;80.09
8049;BME280;20935;42.660;23.342;2023-06-14T03:38:25;94493.84;;;23.94;80.06
8049;BME280;20935;42.660;23.342;2023-06-14T03:41:10;94482.91;;;23.94;80.06
8049;BME280;20935;42.660;23.342;2023-06-14T03:43:56;94480.91;;;23.95;80.01
8049;BME280;20935;42.660;23.342;2023-06-14T03:46:41;94489.13;;;23.95;79.95
8049;BME280;20935;42.660;23.342;2023-06-14T03:49:26;94487.13;;;23.95;79.88
8049;BME280;20935;42.660;23.342;2023-06-14T03:52:12;94490.63;;;23.96;79.86
8049;BME280;20935;42.660;23.342;2023-06-14T03:55:00;94493.38;;;23.96;79.83
8049;BME280;20935;42.660;23.342;2023-06-14T03:57:45;94496.84;;;23.96;79.93
8049;BME280;20935;42.660;23.342;2023-06-14T04:00:30;94500.31;;;23.97;79.75
8049;BME280;20935;42.660;23.342;2023-06-14T04:03:16;94492.09;;;23.97;79.73
8049;BME280;20935;42.660;23.342;2023-06-14T04:06:01;94498.34;;;23.97;79.83
8049;BME280;20935;42.660;23.342;2023-06-14T04:08:47;94495.59;;;23.97;79.86
8049;BME280;20935;42.660;23.342;2023-06-14T04:11:33;94505.78;;;23.97;79.79
8049;BME280;20935;42.660;23.342;2023-06-14T04:14:19;94504.56;;;23.98;79.65
8049;BME280;20935;42.660;23.342;2023-06-14T04:17:04;94501.81;;;23.98;79.71
8049;BME280;20935;42.660;23.342;2023-06-14T04:19:50;94499.09;;;23.98;79.40
8049;BME280;20935;42.660;23.342;2023-06-14T04:22:35;94502.56;;;23.98;79.58
8049;BME280;20935;42.660;23.342;2023-06-14T04:25:22;94501.34;;;23.99;79.60
8049;BME280;20935;42.660;23.342;2023-06-14T04:28:09;94497.84;;;23.99;79.67
8049;BME280;20935;42.660;23.342;2023-06-14T04:30:54;94497.38;;;24.00;79.67
8049;BME280;20935;42.660;23.342;2023-06-14T04:33:39;94504.34;;;24.01;79.55
8049;BME280;20935;42.660;23.342;2023-06-14T04:36:29;94504.34;;;24.01;79.59
8049;BME280;20935;42.660;23.342;2023-06-14T04:39:18;94498.38;;;24.03;79.47
8049;BME280;20935;42.660;23.342;2023-06-14T04:42:06;94501.88;;;24.03;79.35
8049;BME280;20935;42.660;23.342;2023-06-14T04:44:51;94498.38;;;24.03;79.49
8049;BME280;20935;42.660;23.342;2023-06-14T04:47:39;94501.88;;;24.03;79.37
8049;BME280;20935;42.660;23.342;2023-06-14T04:50:25;94495.91;;;24.05;79.29
8049;BME280;20935;42.660;23.342;2023-06-14T04:53:11;94504.09;;;24.05;79.25
8049;BME280;20935;42.660;23.342;2023-06-14T04:55:56;94508.34;;;24.06;79.33
8049;BME280;20935;42.660;23.342;2023-06-14T04:58:42;94511.09;;;24.06;79.26
8049;BME280;20935;42.660;23.342;2023-06-14T05:01:30;94511.09;;;24.06;79.25
8049;BME280;20935;42.660;23.342;2023-06-14T05:04:17;94515.09;;;24.10;79.10
8049;BME280;20935;42.660;23.342;2023-06-14T05:07:02;94519.59;;;24.08;79.21
8049;BME280;20935;42.660;23.342;2023-06-14T05:09:48;94520.06;;;24.06;79.12
8049;BME280;20935;42.660;23.342;2023-06-14T05:12:33;94518.81;;;24.07;79.13
8049;BME280;20935;42.660;23.342;2023-06-14T05:15:19;94521.56;;;24.07;79.10
8049;BME280;20935;42.660;23.342;2023-06-14T05:18:09;94525.06;;;24.08;79.16
8049;BME280;20935;42.660;23.342;2023-06-14T05:20:54;94522.56;;;24.10;79.03
8049;BME280;20935;42.660;23.342;2023-06-14T05:23:39;94529.56;;;24.11;78.93
8049;BME280;20935;42.660;23.342;2023-06-14T05:26:24;94528.31;;;24.12;79.08
8049;BME280;20935;42.660;23.342;2023-06-14T05:29:12;94532.53;;;24.13;78.95
8049;BME280;20935;42.660;23.342;2023-06-14T05:31:59;94545.00;;;24.14;79.07
8049;BME280;20935;42.660;23.342;2023-06-14T05:34:44;94542.75;;;24.12;78.80
8049;BME280;20935;42.660;23.342;2023-06-14T05:37:30;94550.47;;;24.14;79.13
8049;BME280;20935;42.660;23.342;2023-06-14T05:40:15;94537.28;;;24.12;79.04
8049;BME280;20935;42.660;23.342;2023-06-14T05:43:01;94536.03;;;24.13;78.97
8049;BME280;20935;42.660;23.342;2023-06-14T05:45:46;94541.50;;;24.13;78.97
8049;BME280;20935;42.660;23.342;2023-06-14T05:48:33;94549.25;;;24.15;78.94
8049;BME280;20935;42.660;23.342;2023-06-14T05:51:18;94554.25;;;24.16;78.88
8049;BME280;20935;42.660;23.342;2023-06-14T05:54:03;94549.50;;;24.17;78.85
8049;BME280;20935;42.660;23.342;2023-06-14T05:56:48;94555.00;;;24.17;78.79
8049;BME280;20935;42.660;23.342;2023-06-14T05:59:33;94544.31;;;24.19;78.68
8049;BME280;20935;42.660;23.342;2023-06-14T06:02:18;94552.31;;;24.22;78.62
8049;BME280;20935;42.660;23.342;2023-06-14T06:05:05;94548.34;;;24.23;78.64
8049;BME280;20935;42.660;23.342;2023-06-14T06:07:51;94556.56;;;24.23;78.37
8049;BME280;20935;42.660;23.342;2023-06-14T06:10:36;94560.81;;;24.24;78.54
8049;BME280;20935;42.660;23.342;2023-06-14T06:13:21;94550.56;;;24.25;78.42
8049;BME280;20935;42.660;23.342;2023-06-14T06:16:06;94556.06;;;24.25;78.37
8049;BME280;20935;42.660;23.342;2023-06-14T06:18:51;94567.00;;;24.25;78.44
8049;BME280;20935;42.660;23.342;2023-06-14T06:21:38;94559.53;;;24.25;78.55
8049;BME280;20935;42.660;23.342;2023-06-14T06:24:23;94569.00;;;24.24;78.48
8049;BME280;20935;42.660;23.342;2023-06-14T06:27:09;94575.22;;;24.25;78.67
8049;BME280;20935;42.660;23.342;2023-06-14T06:29:54;94564.78;;;24.23;78.46
8049;BME280;20935;42.660;23.342;2023-06-14T06:32:40;94572.22;;;24.23;78.48
8049;BME280;20935;42.660;23.342;2023-06-14T06:35:24;94572.22;;;24.23;78.63
8049;BME280;20935;42.660;23.342;2023-06-14T06:38:11;94569.75;;;24.25;78.45
8049;BME280;20935;42.660;23.342;2023-06-14T06:40:56;94574.22;;;24.22;78.51
8049;BME280;20935;42.660;23.342;2023-06-14T06:43:41;94574.69;;;24.21;78.69
8049;BME280;20935;42.660;23.342;2023-06-14T06:46:26;94577.41;;;24.15;79.08
8049;BME280;20935;42.660;23.342;2023-06-14T06:49:11;94576.88;;;24.17;78.99
8049;BME280;20935;42.660;23.342;2023-06-14T06:52:00;94580.88;;;24.16;79.07
8049;BME280;20935;42.660;23.342;2023-06-14T06:54:48;94579.63;;;24.17;79.05
8049;BME280;20935;42.660;23.342;2023-06-14T06:57:34;94576.88;;;24.17;79.05
8049;BME280;20935;42.660;23.342;2023-06-14T07:00:19;94576.88;;;24.17;78.84
8049;BME280;20935;42.660;23.342;2023-06-14T07:03:05;94578.41;;;24.18;79.05
8049;BME280;20935;42.660;23.342;2023-06-14T07:05:50;94572.94;;;24.18;78.97
8049;BME280;20935;42.660;23.342;2023-06-14T07:08:35;94575.19;;;24.19;78.90
8049;BME280;20935;42.660;23.342;2023-06-14T07:11:23;94581.41;;;24.20;78.63
8049;BME280;20935;42.660;23.342;2023-06-14T07:14:08;94577.41;;;24.21;78.75
8049;BME280;20935;42.660;23.342;2023-06-14T07:16:53;94569.50;;;24.23;78.55
8049;BME280;20935;42.660;23.342;2023-06-14T07:19:39;94577.00;;;24.28;78.44
8049;BME280;20935;42.660;23.342;2023-06-14T07:22:24;94565.28;;;24.27;78.40
8049;BME280;20935;42.660;23.342;2023-06-14T07:25:09;94571.78;;;24.30;78.32
8049;BME280;20935;42.660;23.342;2023-06-14T07:27:58;94565.81;;;24.31;78.24
8049;BME280;20935;42.660;23.342;2023-06-14T07:30:43;94568.06;;;24.33;78.26
8049;BME280;20935;42.660;23.342;2023-06-14T07:33:28;94565.59;;;24.35;78.32
8049;BME280;20935;42.660;23.342;2023-06-14T07:36:13;94568.09;;;24.39;77.97
8049;BME280;20935;42.660;23.342;2023-06-14T07:38:59;94563.88;;;24.38;77.97
8049;BME280;20935;42.660;23.342;2023-06-14T07:41:47;94566.13;;;24.39;77.95
8049;BME280;20935;42.660;23.342;2023-06-14T07:44:33;94562.16;;;24.40;78.03
8049;BME280;20935;42.660;23.342;2023-06-14T07:47:18;94571.84;;;24.41;77.92
8049;BME280;20935;42.660;23.342;2023-06-14T07:50:04;94565.16;;;24.42;77.98
8049;BME280;20935;42.660;23.342;2023-06-14T07:52:49;94573.63;;;24.44;77.96
8049;BME280;20935;42.660;23.342;2023-06-14T07:55:34;94573.88;;;24.46;77.84
8049;BME280;20935;42.660;23.342;2023-06-14T07:58:20;94575.88;;;24.46;77.87
8049;BME280;20935;42.660;23.342;2023-06-14T08:01:07;94580.06;;;24.41;77.98
8049;BME280;20935;42.660;23.342;2023-06-14T08:03:52;94587.06;;;24.42;78.10
8049;BME280;20935;42.660;23.342;2023-06-14T08:06:37;94583.09;;;24.43;77.98
8049;BME280;20935;42.660;23.342;2023-06-14T08:09:22;94595.53;;;24.44;77.98
8049;BME280;20935;42.660;23.342;2023-06-14T08:12:08;94593.53;;;24.45;77.97
8049;BME280;20935;42.660;23.342;2023-06-14T08:14:54;94599.00;;;24.45;77.99
8049;BME280;20935;42.660;23.342;2023-06-14T08:17:41;94604.72;;;24.41;78.12
8049;BME280;20935;42.660;23.342;2023-06-14T08:20:27;94603.97;;;24.41;78.02
8049;BME280;20935;42.660;23.342;2023-06-14T08:23:14;94598.47;;;24.41;78.25
8049;BME280;20935;42.660;23.342;2023-06-14T08:26:02;94603.75;;;24.44;78.08
8049;BME280;20935;42.660;23.342;2023-06-14T08:28:48;94598.53;;;24.46;78.02
8049;BME280;20935;42.660;23.342;2023-06-14T08:31:33;94601.28;;;24.46;77.92
8049;BME280;20935;42.660;23.342;2023-06-14T08:34:20;94606.28;;;24.48;77.90
8049;BME280;20935;42.660;23.342;2023-06-14T08:37:07;94609.75;;;24.48;77.86
8049;BME280;20935;42.660;23.342;2023-06-14T08:39:52;94606.75;;;24.46;78.03
8049;BME280;20935;42.660;23.342;2023-06-14T08:42:38;94603.31;;;24.51;77.81
8049;BME280;20935;42.660;23.342;2023-06-14T08:45:23;94597.84;;;24.51;77.90
8049;BME280;20935;42.660;23.342;2023-06-14T08:48:08;94587.13;;;24.53;77.62
8049;BME280;20935;42.660;23.342;2023-06-14T08:50:55;94595.34;;;24.53;77.69
8049;BME280;20935;42.660;23.342;2023-06-14T08:53:45;94591.38;;;24.54;77.81
8049;BME280;20935;42.660;23.342;2023-06-14T08:56:31;94589.38;;;24.55;77.84
8049;BME280;20935;42.660;23.342;2023-06-14T08:59:17;94593.41;;;24.59;77.42
8049;BME280;20935;42.660;23.342;2023-06-14T09:02:05;94590.13;;;24.55;77.57
8049;BME280;20935;42.660;23.342;2023-06-14T09:04:50;94589.63;;;24.57;77.55
8049;BME280;20935;42.660;23.342;2023-06-14T09:07:37;94600.59;;;24.57;77.50
8049;BME280;20935;42.660;23.342;2023-06-14T09:10:24;94590.91;;;24.56;77.50
8049;BME280;20935;42.660;23.342;2023-06-14T09:13:09;94584.16;;;24.57;77.62
8049;BME280;20935;42.660;23.342;2023-06-14T09:15:54;94582.94;;;24.58;77.77
8049;BME280;20935;42.660;23.342;2023-06-14T09:18:40;94583.69;;;24.58;77.59
8049;BME280;20935;42.660;23.342;2023-06-14T09:21:27;94581.69;;;24.59;77.62
8049;BME280;20935;42.660;23.342;2023-06-14T09:24:14;94581.19;;;24.60;77.51
8049;BME280;20935;42.660;23.342;2023-06-14T09:26:59;94592.41;;;24.62;77.60
8049;BME280;20935;42.660;23.342;2023-06-14T09:29:44;94581.00;;;24.64;77.40
8049;BME280;20935;42.660;23.342;2023-06-14T09:32:30;94573.78;;;24.66;77.26
8049;BME280;20935;42.660;23.342;2023-06-14T09:35:15;94574.78;;;24.69;77.43
8049;BME280;20935;42.660;23.342;2023-06-14T09:38:02;94573.53;;;24.70;77.28
8049;BME280;20935;42.660;23.342;2023-06-14T09:40:50;94569.56;;;24.71;77.41
8049;BME280;20935;42.660;23.342;2023-06-14T09:43:35;94570.03;;;24.69;77.23
8049;BME280;20935;42.660;23.342;2023-06-14T09:46:21;94566.56;;;24.69;77.28
8049;BME280;20935;42.660;23.342;2023-06-14T09:49:06;94566.06;;;24.70;77.41
8049;BME280;20935;42.660;23.342;2023-06-14T09:51:52;94568.06;;;24.70;77.42
8049;BME280;20935;42.660;23.342;2023-06-14T09:54:40;94570.03;;;24.69;77.27
8049;BME280;20935;42.660;23.342;2023-06-14T09:57:27;94569.81;;;24.67;77.20
8049;BME280;20935;42.660;23.342;2023-06-14T10:00:17;94567.06;;;24.67;77.47
8049;BME280;20935;42.660;23.342;2023-06-14T10:03:03;94553.38;;;24.67;77.33
8049;BME280;20935;42.660;23.342;2023-06-14T10:05:51;94550.88;;;24.69;77.32
8049;BME280;20935;42.660;23.342;2023-06-14T10:08:37;94550.88;;;24.69;77.29
8049;BME280;20935;42.660;23.342;2023-06-14T10:11:22;94539.91;;;24.69;77.18
8049;BME280;20935;42.660;23.342;2023-06-14T10:14:09;94539.44;;;24.71;77.17
8049;BME280;20935;42.660;23.342;2023-06-14T10:16:56;94535.47;;;24.72;77.15
8049;BME280;20935;42.660;23.342;2023-06-14T10:19:46;94527.97;;;24.72;77.42
8049;BME280;20935;42.660;23.342;2023-06-14T10:22:37;94533.44;;;24.72;77.51
8049;BME280;20935;42.660;23.342;2023-06-14T10:25:26;94529.47;;;24.73;77.53
8049;BME280;20935;42.660;23.342;2023-06-14T10:28:15;94529.47;;;24.73;77.49
8049;BME280;20935;42.660;23.342;2023-06-14T10:31:03;94529.22;;;24.71;77.57
8049;BME280;20935;42.660;23.342;2023-06-14T10:33:49;94536.69;;;24.71;77.48
8049;BME280;20935;42.660;23.342;2023-06-14T10:36:35;94534.72;;;24.71;77.57
8049;BME280;20935;42.660;23.342;2023-06-14T10:39:19;94529.72;;;24.70;77.49
8049;BME280;20935;42.660;23.342;2023-06-14T10:42:05;94527.72;;;24.70;77.38
8049;BME280;20935;42.660;23.342;2023-06-14T10:44:51;94527.25;;;24.72;77.40
8049;BME280;20935;42.660;23.342;2023-06-14T10:47:38;94521.75;;;24.72;77.56
8049;BME280;20935;42.660;23.342;2023-06-14T10:50:27;94523.75;;;24.71;77.57
8049;BME280;20935;42.660;23.342;2023-06-14T10:53:21;94520.50;;;24.73;77.27
8049;BME280;20935;42.660;23.342;2023-06-14T10:56:06;94517.28;;;24.74;77.39
8049;BME280;20935;42.660;23.342;2023-06-14T10:58:52;94502.81;;;24.74;77.22
8049;BME280;20935;42.660;23.342;2023-06-14T11:01:38;94494.88;;;24.76;77.13
8049;BME280;20935;42.660;23.342;2023-06-14T11:04:30;94494.66;;;24.79;77.00
8049;BME280;20935;42.660;23.342;2023-06-14T11:07:25;94501.59;;;24.80;77.16
8049;BME280;20935;42.660;23.342;2023-06-14T11:10:21;94496.88;;;24.81;76.98
8049;BME280;20935;42.660;23.342;2023-06-14T11:13:11;94502.88;;;24.79;77.07
8049;BME280;20935;42.660;23.342;2023-06-14T11:15:56;94491.91;;;24.79;77.23
8049;BME280;20935;42.660;23.342;2023-06-14T11:18:42;94490.63;;;24.80;77.08
8049;BME280;20935;42.660;23.342;2023-06-14T11:21:31;94493.66;;;24.83;77.12
8049;BME280;20935;42.660;23.342;2023-06-14T11:24:17;94489.91;;;24.80;77.15
8049;BME280;20935;42.660;23.342;2023-06-14T11:27:02;94483.69;;;24.79;77.21
8049;BME280;20935;42.660;23.342;2023-06-14T11:29:48;94479.44;;;24.78;77.19
8049;BME280;20935;42.660;23.342;2023-06-14T11:32:34;94482.19;;;24.78;77.28
8049;BME280;20935;42.660;23.342;2023-06-14T11:35:19;94485.16;;;24.80;77.10
8049;BME280;20935;42.660;23.342;2023-06-14T11:38:09;94483.19;;;24.81;77.09
8049;BME280;20935;42.660;23.342;2023-06-14T11:40:58;94478.72;;;24.84;76.93
8049;BME280;20935;42.660;23.342;2023-06-14T11:43:43;94480.50;;;24.87;77.08
8049;BME280;20935;42.660;23.342;2023-06-14T11:46:28;94470.50;;;24.84;77.12
8049;BME280;20935;42.660;23.342;2023-06-14T11:49:13;94468.50;;;24.84;77.04
8049;BME280;20935;42.660;23.342;2023-06-14T11:51:58;94465.28;;;24.86;77.10
8049;BME280;20935;42.660;23.342;2023-06-14T11:54:45;94462.81;;;24.88;77.00
8049;BME280;20935;42.660;23.342;2023-06-14T11:57:33;94452.09;;;24.90;76.79
8049;BME280;20935;42.660;23.342;2023-06-14T12:00:19;94450.13;;;24.90;76.88
8049;BME280;20935;42.660;23.342;2023-06-14T12:03:06;94449.34;;;24.90;76.84
8049;BME280;20935;42.660;23.342;2023-06-14T12:06:01;94445.13;;;24.89;76.89
8049;BME280;20935;42.660;23.342;2023-06-14T12:08:46;94441.66;;;24.88;76.83
8049;BME280;20935;42.660;23.342;2023-06-14T12:11:34;94439.41;;;24.87;77.07
8049;BME280;20935;42.660;23.342;2023-06-14T12:14:20;94439.59;;;24.83;77.26
8049;BME280;20935;42.660;23.342;2023-06-14T12:17:06;94436.13;;;24.83;77.09
8049;BME280;20935;42.660;23.342;2023-06-14T12:19:51;94431.88;;;24.82;77.21
8049;BME280;20935;42.660;23.342;2023-06-14T12:22:36;94429.88;;;24.82;77.19
8049;BME280;20935;42.660;23.342;2023-06-14T12:25:29;94425.63;;;24.81;77.21
8049;BME280;20935;42.660;23.342;2023-06-14T12:28:17;94428.38;;;24.81;77.33
8049;BME280;20935;42.660;23.342;2023-06-14T12:31:04;94424.16;;;24.80;77.28
8049;BME280;20935;42.660;23.342;2023-06-14T12:33:49;94423.41;;;24.79;77.25
8049;BME280;20935;42.660;23.342;2023-06-14T12:36:35;94428.13;;;24.79;77.25
8049;BME280;20935;42.660;23.342;2023-06-14T12:39:25;94419.91;;;24.79;77.32
8049;BME280;20935;42.660;23.342;2023-06-14T12:42:10;94416.41;;;24.78;77.45
8049;BME280;20935;42.660;23.342;2023-06-14T12:44:56;94410.94;;;24.78;77.29
8049;BME280;20935;42.660;23.342;2023-06-14T12:47:41;94415.66;;;24.78;77.54
8049;BME280;20935;42.660;23.342;2023-06-14T12:50:27;94408.69;;;24.77;77.54
8049;BME280;20935;42.660;23.342;2023-06-14T12:53:12;94398.22;;;24.75;77.51
8049;BME280;20935;42.660;23.342;2023-06-14T12:55:57;94401.72;;;24.76;77.40
8049;BME280;20935;42.660;23.342;2023-06-14T12:58:42;94398.22;;;24.75;77.61
8049;BME280;20935;42.660;23.342;2023-06-14T13:01:28;94406.44;;;24.75;77.64
8049;BME280;20935;42.660;23.342;2023-06-14T13:04:14;94407.94;;;24.76;77.58
8049;BME280;20935;42.660;23.342;2023-06-14T13:06:59;94403.19;;;24.77;77.62
8049;BME280;20935;42.660;23.342;2023-06-14T13:09:44;94407.22;;;24.76;77.49
8049;BME280;20935;42.660;23.342;2023-06-14T13:12:29;94407.94;;;24.76;77.61
8049;BME280;20935;42.660;23.342;2023-06-14T13:15:14;94405.19;;;24.76;77.43
8049;BME280;20935;42.660;23.342;2023-06-14T13:18:01;94421.63;;;24.76;77.56
8049;BME280;20935;42.660;23.342;2023-06-14T13:20:46;94427.09;;;24.76;77.73
8049;BME280;20935;42.660;23.342;2023-06-14T13:23:31;94432.34;;;24.74;77.77
8049;BME280;20935;42.660;23.342;2023-06-14T13:26:16;94448.28;;;24.70;77.66
8049;BME280;20935;42.660;23.342;2023-06-14T13:29:02;94460.97;;;24.68;77.78
8049;BME280;20935;42.660;23.342;2023-06-14T13:31:47;94464.19;;;24.66;78.14
8049;BME280;20935;42.660;23.342;2023-06-14T13:34:34;94463.44;;;24.66;78.03
8049;BME280;20935;42.660;23.342;2023-06-14T13:37:19;94468.69;;;24.64;77.95
8049;BME280;20935;42.660;23.342;2023-06-14T13:40:04;94470.66;;;24.63;78.11
8049;BME280;20935;42.660;23.342;2023-06-14T13:42:50;94467.69;;;24.67;78.02
8049;BME280;20935;42.660;23.342;2023-06-14T13:45:35;94465.69;;;24.67;78.02
8049;BME280;20935;42.660;23.342;2023-06-14T13:48:20;94462.69;;;24.65;77.94
8049;BME280;20935;42.660;23.342;2023-06-14T13:51:07;94459.94;;;24.65;78.01
8049;BME280;20935;42.660;23.342;2023-06-14T13:53:53;94455.22;;;24.66;77.90
8049;BME280;20935;42.660;23.342;2023-06-14T13:56:39;94451.72;;;24.65;77.98
8049;BME280;20935;42.660;23.342;2023-06-14T13:59:24;94453.72;;;24.65;77.97
8049;BME280;20935;42.660;23.342;2023-06-14T14:02:09;94446.75;;;24.64;78.02
8049;BME280;20935;42.660;23.342;2023-06-14T14:04:55;94454.22;;;24.63;78.10
8049;BME280;20935;42.660;23.342;2023-06-14T14:07:42;94452.97;;;24.64;78.02
8049;BME280;20935;42.660;23.342;2023-06-14T14:10:27;94461.19;;;24.64;78.00
8049;BME280;20935;42.660;23.342;2023-06-14T14:13:12;94465.19;;;24.63;78.11
8049;BME280;20935;42.660;23.342;2023-06-14T14:15:58;94470.38;;;24.61;78.04
8049;BME280;20935;42.660;23.342;2023-06-14T14:18:43;94481.34;;;24.61;78.11
8049;BME280;20935;42.660;23.342;2023-06-14T14:21:28;94481.84;;;24.60;78.00
8049;BME280;20935;42.660;23.342;2023-06-14T14:24:14;94486.56;;;24.59;78.27
8049;BME280;20935;42.660;23.342;2023-06-14T14:27:00;94484.31;;;24.58;78.26
8049;BME280;20935;42.660;23.342;2023-06-14T14:29:45;94478.09;;;24.57;78.18
8049;BME280;20935;42.660;23.342;2023-06-14T14:32:30;94478.84;;;24.58;78.29
8049;BME280;20935;42.660;23.342;2023-06-14T14:35:15;94478.09;;;24.57;78.06
8049;BME280;20935;42.660;23.342;2023-06-14T14:38:00;94495.28;;;24.58;78.23
8049;BME280;20935;42.660;23.342;2023-06-14T14:40:48;94496.28;;;24.60;78.17